createdAt,value
2022-09-18T00:00:21.681Z,7.05
2022-09-18T00:05:27.083Z,8.07
2022-09-18T00:10:31.388Z,7.40
2022-09-18T00:15:35.323Z,7.50
2022-09-18T00:20:40.686Z,7.43
2022-09-18T00:25:44.670Z,8.30
2022-09-18T00:30:48.679Z,7.95
2022-09-18T00:35:53.883Z,6.82
2022-09-18T00:40:57.656Z,7.77
2022-09-18T00:46:03.338Z,6.53
2022-09-18T00:51:08.626Z,6.78
2022-09-18T00:56:14.378Z,5.20
2022-09-18T01:01:18.396Z,5.13
2022-09-18T01:06:31.234Z,3.15
2022-09-18T01:11:38.486Z,2.30
2022-09-18T01:16:48.947Z,2.30
2022-09-18T01:22:02.547Z,2.20
2022-09-18T01:27:07.947Z,1.92
2022-09-18T01:32:20.111Z,2.50
2022-09-18T01:37:29.202Z,2.80
2022-09-18T01:42:34.226Z,2.38
2022-09-18T01:47:42.204Z,2.80
2022-09-18T01:52:49.838Z,2.80
2022-09-18T01:57:56.722Z,3.17
2022-09-18T02:03:04.471Z,3.50
2022-09-18T02:08:13.176Z,3.13
2022-09-18T02:13:21.571Z,3.30
2022-09-18T02:18:29.994Z,2.97
2022-09-18T02:23:35.097Z,2.72
2022-09-18T02:28:40.512Z,2.10
2022-09-18T02:33:45.807Z,1.80
2022-09-18T02:38:56.492Z,1.30
2022-09-18T02:44:03.555Z,0.80
2022-09-18T02:49:18.583Z,0.50
2022-09-18T02:54:28.103Z,0.50
2022-09-18T02:59:39.344Z,0.60
2022-09-18T03:04:46.026Z,0.95
2022-09-18T03:09:55.327Z,0.47
2022-09-18T03:15:01.823Z,0.50
2022-09-18T03:20:08.384Z,0.88
2022-09-18T03:25:13.227Z,0.70
2022-09-18T03:30:18.322Z,1.23
2022-09-18T03:35:23.803Z,0.68
2022-09-18T03:40:27.895Z,0.73
2022-09-18T03:45:32.223Z,0.82
2022-09-18T03:50:39.170Z,0.80
2022-09-18T03:55:44.517Z,0.80
2022-09-18T04:01:17.534Z,0.57
2022-09-18T04:06:43.186Z,0.57
2022-09-18T04:12:06.372Z,0.52
2022-09-18T04:17:11.175Z,0.45
2022-09-18T04:22:16.715Z,0.60
2022-09-18T04:27:20.826Z,0.90
2022-09-18T04:37:31.983Z,0.60
2022-09-18T04:42:38.516Z,0.85
2022-09-18T04:47:43.130Z,0.50
2022-09-18T04:52:48.875Z,0.93
2022-09-18T05:02:59.852Z,1.10
2022-09-18T05:13:11.490Z,0.80
2022-09-18T05:18:21.182Z,0.98
2022-09-18T05:23:33.401Z,1.40
2022-09-18T05:28:38.236Z,1.15
2022-09-18T05:33:42.387Z,1.02
2022-09-18T05:38:47.919Z,1.40
2022-09-18T05:43:52.195Z,1.00
2022-09-18T05:48:56.170Z,1.00
2022-09-18T05:54:04.073Z,0.90
2022-09-18T05:59:16.183Z,0.93
2022-09-18T06:04:23.670Z,1.25
2022-09-18T06:09:42.582Z,1.10
2022-09-18T06:14:46.682Z,1.05
2022-09-18T06:19:51.795Z,1.02
2022-09-18T06:24:57.148Z,2.88
2022-09-18T06:30:08.953Z,1.05
2022-09-18T06:35:13.276Z,1.20
2022-09-18T06:40:20.741Z,1.30
2022-09-18T06:46:04.590Z,1.30
2022-09-18T06:51:18.400Z,0.90
2022-09-18T06:56:40.846Z,1.10
2022-09-18T07:01:49.002Z,0.95
2022-09-18T07:06:58.961Z,1.10
2022-09-18T07:12:06.828Z,1.30
2022-09-18T07:17:26.397Z,1.40
2022-09-18T07:22:33.291Z,1.30
2022-09-18T07:27:38.659Z,1.00
2022-09-18T07:32:43.193Z,1.42
2022-09-18T07:37:51.863Z,1.30
2022-09-18T07:43:06.729Z,0.80
2022-09-18T07:48:12.271Z,2.53
2022-09-18T07:53:22.003Z,2.83
2022-09-18T07:58:30.491Z,2.50
2022-09-18T08:03:41.628Z,5.78
2022-09-18T08:08:52.995Z,5.47
2022-09-18T08:14:03.752Z,2.00
2022-09-18T08:19:19.575Z,3.63
2022-09-18T08:24:36.188Z,2.30
2022-09-18T08:29:42.703Z,1.63
2022-09-18T08:34:48.036Z,2.45
2022-09-18T08:39:53.405Z,4.97
2022-09-18T08:45:35.271Z,3.53
2022-09-18T08:50:41.990Z,2.17
2022-09-18T08:55:50.746Z,1.45
2022-09-18T09:01:09.450Z,2.90
2022-09-18T09:06:48.223Z,1.98
2022-09-18T09:12:04.983Z,1.13
2022-09-18T09:17:17.954Z,4.10
2022-09-18T09:22:29.479Z,1.00
2022-09-18T09:27:36.963Z,1.88
2022-09-18T09:33:06.431Z,1.02
2022-09-18T09:38:42.479Z,1.00
2022-09-18T09:43:49.850Z,3.53
2022-09-18T09:49:00.830Z,3.22
2022-09-18T09:54:08.373Z,4.88
2022-09-18T09:59:25.776Z,1.88
2022-09-18T10:04:47.761Z,1.55
2022-09-18T10:09:54.738Z,0.60
2022-09-18T10:15:07.725Z,2.38
2022-09-18T10:20:16.799Z,1.42
2022-09-18T10:25:29.658Z,1.20
2022-09-18T10:30:33.801Z,1.13
2022-09-18T10:35:44.202Z,0.90
2022-09-18T10:40:49.608Z,1.25
2022-09-18T10:45:54.692Z,1.33
2022-09-18T10:51:17.808Z,1.52
2022-09-18T10:56:24.550Z,0.80
2022-09-18T11:01:31.630Z,0.60
2022-09-18T11:06:38.928Z,0.67
2022-09-18T11:12:03.572Z,0.93
2022-09-18T11:17:22.632Z,3.95
2022-09-18T11:22:34.558Z,1.33
2022-09-18T11:27:47.489Z,1.40
2022-09-18T11:32:54.504Z,1.80
2022-09-18T11:38:06.382Z,1.77
2022-09-18T11:43:16.643Z,0.93
2022-09-18T11:48:28.011Z,1.35
2022-09-18T11:53:39.466Z,0.90
2022-09-18T11:58:49.403Z,1.05
2022-09-18T12:03:57.732Z,1.10
2022-09-18T12:09:04.910Z,3.97
2022-09-18T12:14:15.807Z,0.88
2022-09-18T12:19:32.661Z,0.77
2022-09-18T12:24:38.892Z,0.68
2022-09-18T12:29:55.602Z,1.33
2022-09-18T12:35:04.846Z,0.63
2022-09-18T12:40:27.507Z,1.40
2022-09-18T12:46:00.721Z,0.50
2022-09-18T12:51:16.387Z,1.13
2022-09-18T12:56:31.685Z,1.90
2022-09-18T13:01:37.726Z,0.80
2022-09-18T13:06:47.480Z,1.38
2022-09-18T13:11:55.025Z,0.88
2022-09-18T13:17:03.925Z,1.27
2022-09-18T13:22:12.963Z,0.70
2022-09-18T13:27:19.415Z,0.50
2022-09-18T13:32:24.898Z,5.90
2022-09-18T13:37:30.983Z,1.60
2022-09-18T13:42:39.773Z,1.30
2022-09-18T13:48:01.562Z,8.02
2022-09-18T13:53:06.041Z,3.35
2022-09-18T13:58:52.826Z,1.80
2022-09-18T14:04:00.378Z,0.80
2022-09-18T14:09:05.229Z,2.50
2022-09-18T14:19:32.345Z,1.02
2022-09-18T14:24:57.494Z,1.38
2022-09-18T14:30:05.987Z,2.40
2022-09-18T14:35:33.798Z,1.40
2022-09-18T14:40:37.814Z,2.65
2022-09-18T14:45:41.913Z,1.15
2022-09-18T14:50:59.929Z,4.80
2022-09-18T14:56:07.186Z,9.88
2022-09-18T15:01:20.011Z,12.88
2022-09-18T15:06:28.087Z,1.65
2022-09-18T15:11:46.953Z,1.60
2022-09-18T15:16:57.099Z,4.45
2022-09-18T15:22:03.797Z,4.22
2022-09-18T15:27:07.801Z,3.72
2022-09-18T15:32:13.271Z,6.78
2022-09-18T15:37:20.746Z,2.72
2022-09-18T15:42:29.445Z,10.65
2022-09-18T15:47:35.119Z,1.90
2022-09-18T15:52:42.219Z,1.20
2022-09-18T15:57:49.355Z,1.20
2022-09-18T16:02:54.442Z,1.40
2022-09-18T16:08:01.962Z,1.20
2022-09-18T16:13:07.291Z,1.45
2022-09-18T16:18:27.309Z,1.50
2022-09-18T16:23:35.146Z,1.15
2022-09-18T16:28:43.081Z,1.08
2022-09-18T16:33:57.358Z,1.63
2022-09-18T16:39:04.001Z,1.65
2022-09-18T16:44:11.038Z,2.95
2022-09-18T16:49:17.726Z,1.25
2022-09-18T16:54:23.051Z,2.00
2022-09-18T16:59:29.641Z,2.37
2022-09-18T17:04:34.260Z,1.98
2022-09-18T17:09:39.558Z,1.83
2022-09-18T17:14:43.543Z,2.97
2022-09-18T17:19:47.620Z,1.80
2022-09-18T17:24:53.146Z,1.70
2022-09-18T17:29:57.334Z,1.58
2022-09-18T17:35:01.324Z,1.20
2022-09-18T17:40:07.828Z,1.50
2022-09-18T17:45:12.253Z,1.50
2022-09-18T17:50:19.213Z,1.10
2022-09-18T17:55:24.565Z,3.00
2022-09-18T18:00:28.815Z,1.17
2022-09-18T18:05:32.771Z,1.13
2022-09-18T18:10:38.713Z,1.48
2022-09-18T18:15:43.834Z,1.80
2022-09-18T18:20:51.028Z,1.75
2022-09-18T18:25:56.403Z,1.77
2022-09-18T18:31:05.542Z,1.10
2022-09-18T18:36:11.114Z,1.30
2022-09-18T18:41:17.149Z,1.50
2022-09-18T18:51:26.022Z,1.13
2022-09-18T18:56:32.470Z,1.67
2022-09-18T19:01:36.821Z,1.20
2022-09-18T19:06:42.663Z,1.33
2022-09-18T19:11:48.434Z,0.93
2022-09-18T19:16:53.165Z,1.50
2022-09-18T19:21:59.647Z,1.35
2022-09-18T19:27:05.129Z,1.05
2022-09-18T19:32:09.594Z,0.93
2022-09-18T19:37:17.805Z,1.38
2022-09-18T19:42:25.651Z,1.08
2022-09-18T19:47:31.946Z,1.25
2022-09-18T19:57:41.024Z,1.23
2022-09-18T20:02:45.007Z,1.00
2022-09-18T20:07:50.910Z,0.90
2022-09-18T20:12:56.960Z,0.80
2022-09-18T20:23:06.091Z,1.00
2022-09-18T20:28:11.362Z,0.60
2022-09-18T20:33:15.323Z,0.87
2022-09-18T20:38:19.344Z,0.88
2022-09-18T20:43:24.739Z,1.20
2022-09-18T20:48:33.092Z,0.60
2022-09-18T20:53:38.395Z,1.20
2022-09-18T20:58:43.937Z,1.03
2022-09-18T21:03:49.404Z,1.15
2022-09-18T21:08:55.043Z,0.80
2022-09-18T21:14:01.687Z,1.20
2022-09-18T21:19:06.808Z,1.30
2022-09-18T21:24:11.066Z,1.10
2022-09-18T21:29:18.323Z,0.80
2022-09-18T21:34:24.632Z,0.93
2022-09-18T21:39:29.371Z,0.95
2022-09-18T21:44:37.725Z,0.70
2022-09-18T21:49:41.682Z,1.00
2022-09-18T21:54:45.757Z,0.93
2022-09-18T21:59:51.033Z,0.70
2022-09-18T22:04:55.194Z,0.60
2022-09-18T22:09:59.455Z,0.60
2022-09-18T22:15:05.263Z,0.70
2022-09-18T22:20:09.812Z,0.80
2022-09-18T22:25:14.454Z,0.70
2022-09-18T22:30:19.878Z,0.75
2022-09-18T22:35:23.761Z,0.70
2022-09-18T22:40:27.737Z,0.70
2022-09-18T22:45:33.117Z,0.68
2022-09-18T22:50:37.247Z,0.77
2022-09-18T22:55:41.198Z,0.90
2022-09-18T23:00:46.536Z,0.70
2022-09-18T23:05:51.671Z,1.00
2022-09-18T23:10:57.138Z,0.70
2022-09-18T23:16:07.628Z,0.80
2022-09-18T23:21:13.357Z,0.70
2022-09-18T23:26:23.333Z,0.68
2022-09-18T23:31:30.103Z,0.82
2022-09-18T23:36:36.102Z,0.80
2022-09-18T23:41:40.274Z,0.90
2022-09-18T23:46:46.454Z,1.23
2022-09-18T23:56:55.637Z,0.85
